Time;durP1;ratioP1;P1;durP2;ratioP2;P2;SDS_P1;SDS_P2;PMS_P1;PMS_P2;Temp;Humidity;BMP_temperature;BMP_pressure;BME280_temperature;BME280_humidity;BME280_pressure;Samples;Min_cycle;Max_cycle;Signal;HPM_P1;HPM_P2
2023/05/26 00:02:24;;;;;;;68.75;50.45;;;15.70;78.60;;;;;;4954180;28;87796;-64
2023/05/26 00:04:50;;;;;;;68.43;51.13;;;15.60;79.00;;;;;;4955364;28;85420;-63
2023/05/26 00:07:16;;;;;;;67.40;50.72;;;15.70;78.40;;;;;;4957735;28;86524;-67
2023/05/26 00:09:42;;;;;;;65.03;49.80;;;15.60;78.80;;;;;;4960570;28;85106;-63
2023/05/26 00:12:08;;;;;;;71.78;50.80;;;15.60;80.10;;;;;;4954833;28;86390;-64
2023/05/26 00:14:34;;;;;;;67.22;50.45;;;15.60;78.70;;;;;;4958331;28;85870;-65
2023/05/26 00:16:59;;;;;;;67.63;50.63;;;15.60;78.60;;;;;;4959095;28;85439;-64
2023/05/26 00:19:25;;;;;;;66.80;50.65;;;15.70;79.10;;;;;;4953819;28;91249;-65
2023/05/26 00:21:51;;;;;;;67.72;50.42;;;15.60;78.80;;;;;;4952733;28;85663;-63
2023/05/26 00:24:17;;;;;;;67.35;50.75;;;15.60;79.30;;;;;;4948164;28;85470;-60
2023/05/26 00:26:42;;;;;;;66.88;50.38;;;15.50;78.60;;;;;;4947550;28;86163;-60
2023/05/26 00:29:08;;;;;;;66.47;49.92;;;15.50;79.20;;;;;;4947649;28;85382;-66
2023/05/26 00:31:34;;;;;;;68.03;50.17;;;15.50;79.00;;;;;;4953882;28;87381;-66
2023/05/26 00:33:59;;;;;;;64.85;50.33;;;15.50;80.30;;;;;;4949931;28;85573;-57
2023/05/26 00:36:25;;;;;;;66.65;50.80;;;15.40;79.30;;;;;;4953959;28;85432;-62
2023/05/26 00:38:51;;;;;;;66.18;50.22;;;15.50;79.30;;;;;;4953724;28;85979;-64
2023/05/26 00:41:17;;;;;;;64.68;50.08;;;15.50;79.20;;;;;;4957746;28;86520;-63
2023/05/26 00:43:43;;;;;;;66.88;50.53;;;15.40;80.00;;;;;;4955735;28;85055;-67
2023/05/26 00:46:09;;;;;;;66.60;50.95;;;15.40;79.70;;;;;;4954621;28;86889;-68
2023/05/26 00:48:34;;;;;;;68.43;50.20;;;15.40;79.10;;;;;;4952654;28;86026;-60
2023/05/26 00:51:01;;;;;;;65.90;50.42;;;15.40;79.40;;;;;;4955295;28;85530;-60
2023/05/26 00:53:27;;;;;;;67.70;50.33;;;15.40;79.60;;;;;;4956887;28;86988;-63
2023/05/26 00:55:54;;;;;;;69.05;50.58;;;15.30;79.70;;;;;;4944247;28;86927;-59
2023/05/26 00:58:20;;;;;;;67.03;50.72;;;15.30;79.30;;;;;;4955044;28;86760;-66
2023/05/26 01:00:46;;;;;;;68.38;50.63;;;15.30;80.20;;;;;;4952777;28;85623;-65
2023/05/26 01:03:13;;;;;;;67.30;50.35;;;15.30;79.90;;;;;;4954997;28;85560;-59
2023/05/26 01:05:39;;;;;;;66.05;50.00;;;15.30;79.60;;;;;;4951366;28;86020;-64
2023/05/26 01:08:05;;;;;;;66.10;50.08;;;15.30;80.30;;;;;;4952352;28;86079;-64
2023/05/26 01:10:32;;;;;;;65.40;50.35;;;15.30;80.60;;;;;;4953548;28;87437;-63
2023/05/26 01:13:21;;;;;;;64.75;50.10;;;15.20;79.50;;;;;;4962749;28;85138;-63
2023/05/26 01:15:51;;;;;;;66.03;50.65;;;15.20;80.60;;;;;;4956418;28;86090;-59
2023/05/26 01:18:28;;;;;;;69.72;50.85;;;15.20;79.40;;;;;;4961164;28;85673;-58
2023/05/26 01:20:54;;;;;;;65.93;50.50;;;15.20;79.50;;;;;;4956978;28;85537;-56
2023/05/26 01:23:37;;;;;;;66.38;50.53;;;15.20;80.60;;;;;;4954991;28;86095;-64
2023/05/26 01:26:27;;;;;;;66.82;50.53;;;15.20;81.20;;;;;;4954260;28;86124;-66
2023/05/26 01:29:00;;;;;;;65.18;50.40;;;15.10;80.10;;;;;;4954354;28;85964;-60
2023/05/26 01:31:26;;;;;;;66.57;50.15;;;15.10;80.70;;;;;;4955392;28;85448;-61
2023/05/26 01:33:52;;;;;;;63.20;50.03;;;15.10;81.20;;;;;;4955735;28;86654;-59
2023/05/26 01:36:17;;;;;;;67.07;51.13;;;15.10;80.50;;;;;;4953258;28;86435;-62
2023/05/26 01:38:43;;;;;;;65.93;50.58;;;15.10;80.20;;;;;;4960052;28;86164;-66
2023/05/26 01:41:17;;;;;;;65.57;50.67;;;15.10;81.40;;;;;;4954259;28;86627;-64
2023/05/26 01:44:08;;;;;;;67.03;50.63;;;15.10;80.40;;;;;;4956011;28;85415;-64
2023/05/26 01:47:01;;;;;;;66.73;50.87;;;15.10;80.60;;;;;;4957923;28;85091;-66
2023/05/26 01:49:32;;;;;;;66.78;50.35;;;15.00;79.70;;;;;;4956418;28;86832;-63
2023/05/26 01:52:01;;;;;;;66.45;50.97;;;15.00;80.70;;;;;;4956058;28;85600;-60
2023/05/26 01:54:33;;;;;;;65.10;50.75;;;15.00;81.00;;;;;;4954264;28;85682;-53
2023/05/26 01:56:59;;;;;;;70.35;50.90;;;14.90;80.50;;;;;;4956917;28;85454;-63
2023/05/26 01:59:26;;;;;;;66.55;50.47;;;15.00;81.10;;;;;;4955249;28;86919;-67
2023/05/26 02:01:52;;;;;;;65.25;50.80;;;14.90;79.80;;;;;;4954274;28;90725;-63
2023/05/26 02:04:18;;;;;;;67.78;50.15;;;14.90;81.60;;;;;;4954241;28;86196;-60
2023/05/26 02:06:43;;;;;;;66.55;50.92;;;14.90;80.90;;;;;;4952653;28;86979;-65
2023/05/26 02:09:09;;;;;;;67.70;50.70;;;14.90;80.10;;;;;;4960018;28;85691;-66
2023/05/26 02:11:35;;;;;;;69.15;51.30;;;14.90;81.50;;;;;;4955365;28;85478;-65
2023/05/26 02:14:00;;;;;;;67.30;50.92;;;14.90;80.90;;;;;;4957173;28;85265;-66
2023/05/26 02:16:27;;;;;;;64.18;50.20;;;14.80;80.40;;;;;;4954104;28;85400;-65
2023/05/26 02:18:54;;;;;;;64.95;49.95;;;14.80;81.90;;;;;;4953720;28;91030;-60
2023/05/26 02:21:20;;;;;;;65.78;49.90;;;14.80;81.40;;;;;;4954288;28;85491;-63
2023/05/26 02:23:46;;;;;;;66.65;50.70;;;14.80;80.90;;;;;;4951374;28;85622;-67
2023/05/26 02:26:11;;;;;;;66.28;50.78;;;14.80;80.80;;;;;;4948656;28;85241;-53
2023/05/26 02:28:38;;;;;;;67.13;50.65;;;14.70;81.60;;;;;;4952299;28;90081;-66
2023/05/26 02:31:04;;;;;;;62.88;50.45;;;14.70;80.70;;;;;;4959535;28;86122;-60
2023/05/26 02:33:30;;;;;;;65.85;51.05;;;14.70;82.40;;;;;;4951404;28;86925;-60
2023/05/26 02:35:55;;;;;;;66.68;50.60;;;14.70;80.00;;;;;;4948910;28;85317;-67
2023/05/26 02:38:22;;;;;;;68.45;50.13;;;14.70;81.30;;;;;;4956845;28;86772;-62
2023/05/26 02:40:49;;;;;;;67.40;51.38;;;14.60;81.20;;;;;;4961614;28;85690;-60
2023/05/26 02:43:15;;;;;;;67.45;50.45;;;14.70;81.60;;;;;;4955373;28;85343;-59
2023/05/26 02:45:41;;;;;;;69.13;50.60;;;14.70;81.70;;;;;;4955456;28;86335;-63
2023/05/26 02:48:07;;;;;;;63.85;50.20;;;14.70;81.80;;;;;;4952606;28;86186;-65
2023/05/26 02:50:33;;;;;;;67.60;50.88;;;14.60;81.30;;;;;;4953624;28;85092;-66
2023/05/26 02:52:58;;;;;;;68.72;50.33;;;14.60;82.60;;;;;;4958858;28;85524;-64
2023/05/26 02:55:27;;;;;;;68.93;51.30;;;14.60;81.20;;;;;;4956973;28;86243;-63
2023/05/26 02:57:54;;;;;;;66.35;50.35;;;14.50;80.30;;;;;;4960611;28;85679;-66
2023/05/26 03:00:20;;;;;;;69.55;50.33;;;14.60;81.50;;;;;;4959825;28;89429;-67
2023/05/26 03:02:46;;;;;;;65.38;50.30;;;14.60;81.20;;;;;;4959971;28;85571;-56
2023/05/26 03:05:12;;;;;;;67.53;50.58;;;14.50;81.90;;;;;;4961956;22;86664;-73
2023/05/26 03:07:38;;;;;;;68.68;50.75;;;14.50;80.00;;;;;;4958485;28;86395;-73
2023/05/26 03:10:04;;;;;;;65.43;50.35;;;14.50;81.60;;;;;;4962762;28;84498;-74
2023/05/26 03:12:30;;;;;;;70.30;50.72;;;14.50;81.70;;;;;;4941470;28;84886;-72
2023/05/26 03:14:57;;;;;;;67.95;50.25;;;14.40;81.10;;;;;;4940271;28;84370;-74
2023/05/26 03:17:22;;;;;;;64.57;50.53;;;14.40;81.10;;;;;;4941415;28;85128;-73
2023/05/26 03:19:48;;;;;;;65.57;50.15;;;14.50;82.70;;;;;;4937174;28;87142;-73
2023/05/26 03:22:14;;;;;;;68.35;50.42;;;14.40;81.80;;;;;;4941215;28;84983;-72
2023/05/26 03:24:39;;;;;;;65.82;50.55;;;14.40;81.50;;;;;;4939572;28;84757;-75
2023/05/26 03:27:05;;;;;;;65.40;50.75;;;14.40;82.20;;;;;;4939818;28;86678;-73
2023/05/26 03:29:32;;;;;;;67.53;50.28;;;14.40;80.90;;;;;;4941029;28;85139;-74
2023/05/26 03:31:58;;;;;;;65.28;50.20;;;14.30;82.20;;;;;;4940398;28;84977;-73
2023/05/26 03:34:24;;;;;;;63.15;49.58;;;14.40;81.50;;;;;;4939597;28;86149;-71
2023/05/26 03:36:49;;;;;;;66.47;50.22;;;14.40;82.70;;;;;;4940062;28;84650;-74
2023/05/26 03:39:16;;;;;;;68.63;50.17;;;14.40;81.50;;;;;;4935185;28;85840;-72
2023/05/26 03:41:42;;;;;;;65.03;50.20;;;14.30;82.80;;;;;;4936784;28;84880;-71
2023/05/26 03:44:08;;;;;;;65.30;50.15;;;14.30;82.40;;;;;;4935440;28;85493;-74
2023/05/26 03:46:33;;;;;;;66.78;50.05;;;14.30;82.10;;;;;;4934422;28;88633;-73
2023/05/26 03:48:59;;;;;;;69.50;50.70;;;14.30;83.40;;;;;;4933372;28;90044;-72
2023/05/26 03:51:25;;;;;;;65.55;50.53;;;14.30;81.40;;;;;;4932817;28;85864;-73
2023/05/26 03:53:51;;;;;;;63.55;49.88;;;14.20;81.50;;;;;;4935444;28;84734;-72
2023/05/26 03:56:17;;;;;;;65.20;50.55;;;14.20;83.50;;;;;;4937417;28;86636;-71
2023/05/26 03:58:44;;;;;;;63.10;49.63;;;14.20;82.30;;;;;;4935351;28;86072;-72
2023/05/26 04:01:09;;;;;;;62.78;49.70;;;14.20;82.70;;;;;;4935237;28;84670;-75
2023/05/26 04:03:35;;;;;;;68.55;50.45;;;14.20;83.10;;;;;;4933298;28;85551;-73
2023/05/26 04:06:01;;;;;;;63.03;49.63;;;14.20;82.60;;;;;;4929611;28;85224;-72
2023/05/26 04:08:27;;;;;;;68.70;50.63;;;14.20;82.60;;;;;;4933205;28;85698;-72
2023/05/26 04:10:52;;;;;;;65.60;50.22;;;14.10;81.70;;;;;;4949747;28;84918;-73
2023/05/26 04:13:18;;;;;;;64.95;49.72;;;14.10;82.70;;;;;;4937626;28;85818;-73
2023/05/26 04:15:44;;;;;;;66.28;49.88;;;14.10;82.90;;;;;;4936825;28;85495;-73
2023/05/26 04:18:10;;;;;;;67.75;49.85;;;14.10;81.70;;;;;;4932206;28;85311;-73
2023/05/26 04:20:36;;;;;;;62.60;50.13;;;14.10;81.60;;;;;;4929504;28;85081;-75
2023/05/26 04:23:02;;;;;;;65.50;49.95;;;14.20;81.80;;;;;;4929817;28;86453;-75
2023/05/26 04:25:28;;;;;;;65.20;50.15;;;14.20;82.50;;;;;;4950711;28;86467;-73
2023/05/26 04:27:57;;;;;;;67.65;50.63;;;14.20;82.30;;;;;;4932092;28;85493;-76
2023/05/26 04:30:23;;;;;;;64.50;50.25;;;14.20;81.30;;;;;;4934439;28;85489;-73
2023/05/26 04:32:49;;;;;;;68.30;49.95;;;14.20;83.50;;;;;;4933714;28;85134;-73
2023/05/26 04:35:15;;;;;;;69.63;50.72;;;14.10;81.10;;;;;;4935948;28;87275;-74
2023/05/26 04:37:42;;;;;;;63.25;49.65;;;14.10;81.60;;;;;;4938910;28;86788;-72
2023/05/26 04:40:09;;;;;;;64.65;49.63;;;14.10;81.80;;;;;;4937587;28;84894;-73
2023/05/26 04:42:38;;;;;;;69.00;50.03;;;14.20;82.00;;;;;;4934540;28;87794;-73
2023/05/26 04:45:05;;;;;;;65.30;49.85;;;14.10;81.20;;;;;;4934262;28;84674;-72
2023/05/26 04:47:34;;;;;;;64.38;50.35;;;14.10;81.50;;;;;;4937262;28;89841;-75
2023/05/26 04:50:04;;;;;;;66.60;50.13;;;14.10;81.70;;;;;;4935767;28;84775;-73
2023/05/26 04:52:29;;;;;;;64.65;49.50;;;14.10;81.80;;;;;;4941242;28;86779;-72
2023/05/26 04:54:55;;;;;;;66.65;50.05;;;14.20;81.50;;;;;;4938317;28;86891;-73
2023/05/26 04:57:21;;;;;;;65.15;50.15;;;14.20;82.40;;;;;;4938553;28;89084;-72
2023/05/26 04:59:47;;;;;;;63.42;49.85;;;14.20;82.20;;;;;;4943827;28;85701;-75
2023/05/26 05:02:13;;;;;;;66.75;50.25;;;14.20;80.80;;;;;;4940847;28;84499;-74
2023/05/26 05:04:45;;;;;;;63.35;50.00;;;14.20;81.00;;;;;;4944294;28;84929;-74
2023/05/26 05:07:10;;;;;;;64.55;50.13;;;14.30;81.10;;;;;;4945495;28;85213;-73
2023/05/26 05:09:36;;;;;;;64.68;50.15;;;14.20;81.40;;;;;;4942735;28;84710;-72
2023/05/26 05:12:02;;;;;;;66.00;50.05;;;14.30;80.20;;;;;;4941820;28;86868;-74
2023/05/26 05:14:28;;;;;;;65.90;49.83;;;14.30;81.10;;;;;;4940310;28;87010;-74
2023/05/26 05:16:54;;;;;;;65.05;49.95;;;14.30;80.70;;;;;;4937366;28;85265;-72
2023/05/26 05:19:20;;;;;;;62.33;48.85;;;14.30;81.30;;;;;;4952182;28;85953;-73
2023/05/26 05:21:45;;;;;;;63.53;49.50;;;14.50;84.80;;;;;;4940798;28;85901;-74
2023/05/26 05:24:11;;;;;;;66.38;49.58;;;14.60;84.10;;;;;;4944841;28;85040;-72
2023/05/26 05:26:37;;;;;;;71.63;51.08;;;14.60;82.80;;;;;;4940851;28;86215;-74
2023/05/26 05:29:04;;;;;;;67.88;50.70;;;14.60;81.20;;;;;;4940412;28;84734;-73
2023/05/26 05:31:30;;;;;;;79.65;51.90;;;14.60;79.30;;;;;;4938784;28;85477;-71
2023/05/26 05:33:55;;;;;;;74.20;51.35;;;14.60;77.80;;;;;;4931402;28;93151;-72
2023/05/26 05:36:21;;;;;;;69.38;50.60;;;14.70;76.50;;;;;;4935525;28;91430;-74
2023/05/26 05:38:46;;;;;;;77.13;51.60;;;14.70;75.60;;;;;;4931354;28;86668;-72
2023/05/26 05:41:14;;;;;;;72.90;51.60;;;14.60;75.20;;;;;;4935011;28;84790;-72
2023/05/26 05:43:39;;;;;;;74.38;51.67;;;14.60;75.10;;;;;;4936519;28;85320;-73
2023/05/26 05:46:05;;;;;;;73.15;50.92;;;14.70;74.50;;;;;;4933039;28;87250;-72
2023/05/26 05:48:31;;;;;;;75.80;51.50;;;14.70;74.20;;;;;;4937588;28;84457;-76
2023/05/26 05:50:56;;;;;;;71.75;50.70;;;14.70;74.30;;;;;;4956228;28;84449;-73
2023/05/26 05:53:22;;;;;;;77.30;51.70;;;14.60;74.30;;;;;;4935458;28;86667;-74
2023/05/26 05:55:48;;;;;;;75.03;50.92;;;14.70;74.40;;;;;;4919082;28;85292;-73
2023/05/26 05:58:14;;;;;;;75.43;51.03;;;14.60;74.30;;;;;;4932712;28;86531;-74
2023/05/26 06:00:40;;;;;;;73.20;51.10;;;14.70;74.30;;;;;;4937138;28;85023;-73
2023/05/26 06:03:06;;;;;;;73.07;51.63;;;14.70;74.30;;;;;;4936407;28;85205;-73
2023/05/26 06:05:32;;;;;;;75.90;51.20;;;14.70;74.20;;;;;;4928556;28;85208;-74
2023/05/26 06:07:57;;;;;;;76.85;51.78;;;14.80;74.70;;;;;;4943451;28;84798;-72
2023/05/26 06:10:23;;;;;;;72.82;50.95;;;14.80;74.10;;;;;;4941925;28;85602;-73
2023/05/26 06:12:49;;;;;;;74.55;51.70;;;14.80;73.80;;;;;;4917545;28;87079;-74
2023/05/26 06:15:17;;;;;;;74.80;51.03;;;14.90;73.60;;;;;;4913325;28;86364;-74
2023/05/26 06:17:42;;;;;;;81.63;51.47;;;14.80;73.60;;;;;;4930721;28;90028;-74
2023/05/26 06:20:08;;;;;;;74.55;51.25;;;15.00;73.20;;;;;;4935582;28;84589;-74
2023/05/26 06:22:36;;;;;;;70.25;50.58;;;15.00;72.70;;;;;;4941788;28;84527;-72
2023/05/26 06:25:03;;;;;;;74.65;50.90;;;15.10;72.40;;;;;;4938252;28;86557;-74
2023/05/26 06:27:28;;;;;;;75.38;51.38;;;15.20;72.00;;;;;;4940368;28;85001;-73
2023/05/26 06:29:54;;;;;;;73.00;50.53;;;15.20;71.60;;;;;;4934396;28;85051;-75
2023/05/26 06:32:20;;;;;;;75.22;50.97;;;15.20;71.70;;;;;;4932090;28;85552;-71
2023/05/26 06:34:47;;;;;;;76.68;51.63;;;15.30;71.90;;;;;;4929495;28;86585;-75
2023/05/26 06:37:13;;;;;;;76.35;51.80;;;15.30;72.50;;;;;;4934184;28;85773;-74
2023/05/26 06:39:39;;;;;;;81.43;52.05;;;15.20;72.70;;;;;;4930937;28;85141;-74
2023/05/26 06:42:05;;;;;;;76.53;52.30;;;15.20;72.70;;;;;;4931078;28;85910;-75
2023/05/26 06:44:33;;;;;;;74.72;51.33;;;15.20;72.40;;;;;;4927410;28;86432;-75
2023/05/26 06:46:58;;;;;;;72.30;51.00;;;15.20;71.90;;;;;;4940821;28;85285;-74
2023/05/26 06:49:24;;;;;;;76.15;51.65;;;15.10;71.80;;;;;;4926363;28;85159;-75
2023/05/26 06:51:50;;;;;;;73.65;51.42;;;15.10;71.40;;;;;;4936543;28;85205;-75
2023/05/26 06:54:15;;;;;;;79.50;51.92;;;15.10;71.40;;;;;;4939455;28;86270;-77
2023/05/26 06:56:41;;;;;;;74.82;51.60;;;15.10;71.10;;;;;;4939687;28;85159;-75
2023/05/26 06:59:07;;;;;;;71.03;51.10;;;15.00;71.20;;;;;;4937249;28;85038;-75
2023/05/26 07:01:32;;;;;;;75.70;51.63;;;15.10;71.40;;;;;;4943296;28;85505;-75
2023/05/26 07:03:58;;;;;;;77.43;51.78;;;15.00;71.20;;;;;;4934972;28;89446;-78
2023/05/26 07:06:24;;;;;;;69.40;51.13;;;15.10;71.30;;;;;;4933472;28;85592;-75
2023/05/26 07:08:49;;;;;;;74.70;51.30;;;15.00;71.50;;;;;;4938472;28;86158;-74
2023/05/26 07:11:15;;;;;;;73.05;50.75;;;15.10;71.80;;;;;;4938900;28;86774;-75
2023/05/26 07:13:41;;;;;;;76.28;51.60;;;15.10;71.60;;;;;;4936678;28;84914;-74
2023/05/26 07:16:07;;;;;;;74.20;51.00;;;15.10;71.50;;;;;;4937628;28;84571;-75
2023/05/26 07:18:32;;;;;;;77.47;51.38;;;15.10;71.20;;;;;;4939774;28;84783;-75
2023/05/26 07:20:58;;;;;;;76.72;51.85;;;15.20;70.90;;;;;;4937649;28;86935;-75
2023/05/26 07:23:24;;;;;;;84.20;52.13;;;15.10;70.50;;;;;;4937341;28;85203;-75
2023/05/26 07:25:50;;;;;;;72.13;51.70;;;15.20;70.60;;;;;;4935035;28;85030;-75
2023/05/26 07:28:15;;;;;;;70.75;51.05;;;15.20;70.40;;;;;;4937888;28;86544;-76
2023/05/26 07:30:41;;;;;;;73.55;51.47;;;15.20;70.40;;;;;;4933691;28;90087;-75
2023/05/26 07:33:06;;;;;;;76.70;52.10;;;15.20;70.40;;;;;;4933655;28;85605;-73
2023/05/26 07:35:32;;;;;;;74.80;51.45;;;15.20;70.60;;;;;;4929465;28;85189;-74
2023/05/26 07:37:58;;;;;;;78.40;52.40;;;15.30;70.70;;;;;;4931410;28;86158;-74
2023/05/26 07:40:24;;;;;;;77.05;51.67;;;15.30;70.40;;;;;;4930098;28;85657;-73
2023/05/26 07:42:50;;;;;;;70.38;51.63;;;15.30;70.30;;;;;;4936314;28;85163;-75
2023/05/26 07:45:15;;;;;;;73.35;51.42;;;15.30;70.40;;;;;;4933930;28;85099;-75
2023/05/26 07:47:41;;;;;;;76.10;51.95;;;15.30;70.20;;;;;;4939210;28;85130;-74
2023/05/26 07:50:07;;;;;;;74.18;51.42;;;15.40;70.40;;;;;;4931584;28;85133;-74
2023/05/26 07:52:33;;;;;;;75.28;51.60;;;15.40;70.20;;;;;;4928830;28;85153;-72
2023/05/26 07:54:59;;;;;;;75.72;51.88;;;15.40;70.20;;;;;;4933295;28;85633;-74
2023/05/26 07:57:25;;;;;;;71.88;51.25;;;15.50;70.00;;;;;;4930587;28;84617;-75
2023/05/26 07:59:51;;;;;;;79.97;52.97;;;15.50;70.00;;;;;;4933238;28;85102;-76
2023/05/26 08:02:17;;;;;;;76.85;51.97;;;15.50;73.00;;;;;;4931140;28;85731;-74
2023/05/26 08:04:42;;;;;;;76.28;52.40;;;15.50;73.30;;;;;;4931601;28;88457;-76
2023/05/26 08:07:08;;;;;;;83.05;51.25;;;15.50;68.30;;;;;;4935155;28;90251;-75
2023/05/26 08:09:34;;;;;;;74.13;51.80;;;15.60;67.90;;;;;;4952688;28;85887;-73
2023/05/26 08:11:59;;;;;;;79.68;51.92;;;15.60;67.80;;;;;;4946912;28;86520;-74
2023/05/26 08:14:26;;;;;;;80.00;51.95;;;15.60;66.20;;;;;;4942617;28;85486;-74
2023/05/26 08:16:52;;;;;;;77.18;52.67;;;15.50;68.30;;;;;;4940395;28;86715;-73
2023/05/26 08:19:17;;;;;;;78.32;52.33;;;15.70;66.40;;;;;;4932832;28;85741;-74
2023/05/26 08:21:43;;;;;;;76.18;52.42;;;15.60;67.00;;;;;;4942746;28;84923;-75
2023/05/26 08:24:09;;;;;;;77.65;52.17;;;15.40;65.60;;;;;;4950875;28;84703;-76
2023/05/26 08:26:34;;;;;;;76.60;52.22;;;15.50;68.10;;;;;;4948897;28;85257;-73
2023/05/26 08:29:00;;;;;;;78.28;52.03;;;15.70;67.90;;;;;;4947086;28;85570;-74
2023/05/26 08:31:26;;;;;;;77.28;52.13;;;15.80;64.70;;;;;;4948895;28;86268;-73
2023/05/26 08:33:53;;;;;;;78.68;52.60;;;15.70;65.50;;;;;;4945330;28;85799;-72
2023/05/26 08:36:19;;;;;;;81.15;52.08;;;15.70;65.90;;;;;;4949394;28;86048;-74
2023/05/26 08:38:45;;;;;;;73.10;51.90;;;15.60;65.20;;;;;;4955495;28;84724;-71
2023/05/26 08:41:15;;;;;;;75.80;52.00;;;15.60;65.70;;;;;;4954512;28;86155;-73
2023/05/26 08:43:52;;;;;;;75.40;51.97;;;15.80;67.50;;;;;;4954014;28;85282;-71
2023/05/26 08:46:19;;;;;;;76.22;51.58;;;15.70;64.60;;;;;;4968553;28;85817;-73
2023/05/26 08:48:46;;;;;;;76.03;51.95;;;15.80;64.00;;;;;;4945542;28;86655;-72
2023/05/26 08:51:12;;;;;;;73.57;51.42;;;15.80;62.80;;;;;;4939584;28;87098;-72
2023/05/26 08:53:40;;;;;;;80.10;51.97;;;15.80;65.80;;;;;;4943470;28;84916;-75
2023/05/26 08:56:07;;;;;;;76.05;52.15;;;16.00;62.90;;;;;;4954551;28;85280;-74
2023/05/26 08:58:33;;;;;;;75.70;51.80;;;15.90;62.60;;;;;;4949757;28;85703;-74
2023/05/26 09:01:01;;;;;;;77.03;51.78;;;16.00;64.30;;;;;;4947918;28;84758;-72
2023/05/26 09:03:28;;;;;;;76.03;51.67;;;16.20;61.50;;;;;;4949236;28;84798;-73
2023/05/26 09:05:53;;;;;;;78.50;51.65;;;16.10;61.90;;;;;;4952428;28;86578;-72
2023/05/26 09:08:19;;;;;;;73.82;51.60;;;16.30;62.20;;;;;;4945911;28;86011;-73
2023/05/26 09:10:45;;;;;;;73.97;51.65;;;16.40;61.00;;;;;;4947673;28;85649;-72
2023/05/26 09:13:13;;;;;;;70.15;51.95;;;16.20;60.60;;;;;;4953889;28;85720;-71
2023/05/26 09:15:41;;;;;;;74.03;51.28;;;16.20;59.00;;;;;;4954626;28;84934;-74
2023/05/26 09:18:09;;;;;;;74.07;51.92;;;16.10;61.10;;;;;;4956600;28;84976;-72
2023/05/26 09:20:40;;;;;;;74.18;51.70;;;16.10;59.20;;;;;;4959674;28;87961;-72
2023/05/26 09:23:05;;;;;;;70.40;51.90;;;16.10;60.00;;;;;;4952076;28;84611;-71
2023/05/26 09:25:36;;;;;;;71.05;51.42;;;16.30;59.70;;;;;;4956361;28;86621;-73
2023/05/26 09:28:10;;;;;;;74.22;51.50;;;16.30;58.60;;;;;;4952645;28;84706;-72
2023/05/26 09:30:41;;;;;;;73.38;51.40;;;16.20;58.20;;;;;;4947838;28;89332;-73
2023/05/26 09:33:10;;;;;;;75.75;51.25;;;16.20;57.80;;;;;;4943653;28;84616;-70
2023/05/26 09:35:40;;;;;;;72.15;51.30;;;16.40;59.80;;;;;;4956585;28;84576;-71
2023/05/26 09:38:08;;;;;;;79.15;52.15;;;16.40;59.50;;;;;;4959328;28;84355;-72
2023/05/26 09:40:34;;;;;;;74.75;51.60;;;16.40;59.20;;;;;;4954624;28;84700;-70
2023/05/26 09:43:00;;;;;;;75.90;51.38;;;16.40;59.50;;;;;;4954141;28;84640;-73
2023/05/26 09:45:34;;;;;;;72.90;51.50;;;16.40;58.80;;;;;;4954498;28;85063;-70
2023/05/26 09:48:01;;;;;;;73.00;51.63;;;16.40;59.70;;;;;;4951024;28;85456;-73
2023/05/26 09:50:30;;;;;;;75.50;51.63;;;16.50;59.70;;;;;;4948545;28;88495;-73
2023/05/26 09:52:57;;;;;;;76.90;51.50;;;16.60;58.80;;;;;;4948131;28;89486;-71
2023/05/26 09:55:22;;;;;;;74.22;52.33;;;16.70;58.90;;;;;;4945439;28;85475;-73
2023/05/26 09:57:51;;;;;;;78.28;51.63;;;16.70;57.90;;;;;;4943792;28;84485;-70
2023/05/26 10:00:19;;;;;;;72.18;51.33;;;16.80;58.90;;;;;;4936693;28;86550;-74
2023/05/26 10:02:46;;;;;;;73.10;51.95;;;16.30;56.20;;;;;;4945464;28;85169;-73
2023/05/26 10:05:13;;;;;;;78.18;52.33;;;16.40;57.50;;;;;;4936652;28;85118;-73
2023/05/26 10:07:41;;;;;;;74.35;52.00;;;16.50;56.90;;;;;;4942618;28;84932;-71
2023/05/26 10:10:11;;;;;;;78.20;52.53;;;16.60;58.50;;;;;;4943687;28;85203;-72
2023/05/26 10:12:36;;;;;;;76.97;52.05;;;16.80;57.30;;;;;;4945040;28;84537;-72
2023/05/26 10:15:04;;;;;;;74.85;52.45;;;16.90;56.60;;;;;;4943506;28;85258;-71
2023/05/26 10:17:30;;;;;;;75.82;52.22;;;16.80;57.00;;;;;;4950171;28;86853;-72
2023/05/26 10:19:58;;;;;;;74.75;51.97;;;16.70;56.70;;;;;;4943111;28;85191;-71
2023/05/26 10:22:41;;;;;;;71.65;51.85;;;16.70;56.40;;;;;;4946238;28;85671;-72
2023/05/26 10:25:17;;;;;;;77.55;51.67;;;16.70;56.70;;;;;;4951226;28;86314;-71
2023/05/26 10:28:06;;;;;;;76.25;51.70;;;16.70;58.20;;;;;;4951963;28;84982;-69
2023/05/26 10:30:32;;;;;;;79.90;52.30;;;16.80;55.20;;;;;;4960886;28;87755;-69
2023/05/26 10:33:12;;;;;;;75.25;51.60;;;16.80;55.50;;;;;;4943197;28;85705;-71
2023/05/26 10:35:51;;;;;;;77.45;52.08;;;17.00;58.20;;;;;;4953276;28;85426;-70
2023/05/26 10:38:17;;;;;;;80.00;51.97;;;16.90;55.90;;;;;;4947841;28;85348;-72
2023/05/26 10:40:44;;;;;;;77.40;52.63;;;16.90;56.90;;;;;;4948442;28;85425;-72
2023/05/26 10:43:26;;;;;;;76.07;52.05;;;17.00;56.30;;;;;;4936447;28;85600;-70
2023/05/26 10:45:54;;;;;;;73.53;52.13;;;17.10;56.00;;;;;;4929703;28;86812;-71
2023/05/26 10:48:21;;;;;;;75.80;52.13;;;17.30;56.20;;;;;;4934860;28;85303;-72
2023/05/26 10:50:59;;;;;;;73.75;52.42;;;17.40;53.90;;;;;;4939732;28;85674;-75
2023/05/26 10:53:29;;;;;;;81.03;52.10;;;17.30;56.90;;;;;;4936939;28;84896;-70
2023/05/26 10:56:02;;;;;;;75.70;52.65;;;17.40;56.10;;;;;;4938322;28;85194;-72
2023/05/26 10:58:35;;;;;;;75.15;51.95;;;17.40;55.70;;;;;;4919134;28;86028;-72
2023/05/26 11:01:06;;;;;;;74.03;52.28;;;17.50;55.40;;;;;;4931398;28;85382;-73
2023/05/26 11:03:33;;;;;;;78.30;52.67;;;17.70;55.60;;;;;;4940290;28;86107;-70
2023/05/26 11:05:59;;;;;;;75.55;52.67;;;17.80;56.10;;;;;;4940387;28;85223;-73
2023/05/26 11:08:25;;;;;;;74.65;52.03;;;17.80;55.00;;;;;;4942208;28;85799;-71
2023/05/26 11:11:02;;;;;;;73.32;52.40;;;17.70;52.80;;;;;;4936361;28;85657;-71
2023/05/26 11:13:49;;;;;;;74.97;52.75;;;17.80;54.00;;;;;;4935035;28;86034;-70
2023/05/26 11:16:20;;;;;;;74.10;52.13;;;17.80;56.00;;;;;;4929007;28;85352;-75
2023/05/26 11:18:57;;;;;;;76.88;52.20;;;17.90;54.40;;;;;;4940875;28;85575;-70
2023/05/26 11:21:28;;;;;;;76.40;52.42;;;17.80;52.80;;;;;;4941893;28;85703;-72
2023/05/26 11:23:57;;;;;;;74.45;52.35;;;17.80;52.40;;;;;;4928809;28;84980;-72
2023/05/26 11:26:26;;;;;;;71.38;52.65;;;17.90;53.30;;;;;;4942690;28;85420;-73
2023/05/26 11:28:52;;;;;;;72.85;52.67;;;17.80;53.90;;;;;;4939745;28;85077;-71
2023/05/26 11:31:21;;;;;;;76.05;52.50;;;17.90;53.30;;;;;;4938715;28;86320;-71
2023/05/26 11:33:48;;;;;;;75.90;52.10;;;17.90;51.30;;;;;;4935402;28;85191;-73
2023/05/26 11:36:15;;;;;;;76.88;52.10;;;18.00;52.90;;;;;;4936799;28;85100;-71
2023/05/26 11:38:43;;;;;;;75.88;52.40;;;18.10;51.60;;;;;;4943397;28;85053;-75
2023/05/26 11:41:11;;;;;;;76.95;52.72;;;18.00;52.90;;;;;;4942609;28;85027;-72
2023/05/26 11:43:38;;;;;;;73.53;51.97;;;18.00;51.40;;;;;;4939158;28;84996;-74
2023/05/26 11:46:26;;;;;;;77.35;52.55;;;18.10;52.70;;;;;;4936581;28;86438;-72
2023/05/26 11:48:52;;;;;;;72.32;51.58;;;18.10;51.50;;;;;;4935185;28;85776;-69
2023/05/26 11:51:20;;;;;;;74.35;51.78;;;18.30;51.80;;;;;;4940286;28;85624;-68
2023/05/26 11:53:51;;;;;;;77.90;52.65;;;18.30;51.40;;;;;;4943471;28;85036;-72
2023/05/26 11:56:16;;;;;;;73.57;52.35;;;18.50;51.40;;;;;;4941372;28;85920;-72
2023/05/26 11:58:47;;;;;;;73.32;52.15;;;18.40;49.50;;;;;;4941372;28;86104;-70
2023/05/26 12:01:13;;;;;;;76.97;53.00;;;18.70;52.10;;;;;;4955523;28;86075;-70
2023/05/26 12:03:44;;;;;;;71.70;52.42;;;18.70;50.10;;;;;;4936017;28;85321;-69
2023/05/26 12:06:16;;;;;;;78.38;52.30;;;18.60;50.20;;;;;;4938564;28;87195;-69
2023/05/26 12:08:53;;;;;;;73.05;52.17;;;18.60;50.60;;;;;;4944662;28;85154;-69
2023/05/26 12:11:28;;;;;;;75.85;52.70;;;18.70;49.30;;;;;;4939889;28;85016;-71
2023/05/26 12:13:59;;;;;;;72.20;52.25;;;18.80;49.90;;;;;;4938765;28;84993;-72
2023/05/26 12:16:34;;;;;;;75.87;52.80;;;18.80;51.10;;;;;;4937865;28;85660;-70
2023/05/26 12:19:03;;;;;;;71.68;52.20;;;18.80;48.70;;;;;;4938416;28;84873;-69
2023/05/26 12:21:29;;;;;;;72.00;52.25;;;18.90;48.40;;;;;;4947345;28;86375;-72
2023/05/26 12:23:56;;;;;;;73.35;52.20;;;18.90;47.00;;;;;;4955333;28;84995;-73
2023/05/26 12:26:27;;;;;;;78.75;52.45;;;18.80;46.60;;;;;;4939380;28;85085;-72
2023/05/26 12:29:13;;;;;;;73.80;52.20;;;18.90;48.10;;;;;;4939726;28;85270;-72
2023/05/26 12:31:41;;;;;;;70.43;51.97;;;18.90;48.40;;;;;;4946011;28;86103;-72